createdAt,value
2023-01-27T00:01:54.462Z,102742.84
2023-01-27T00:04:24.940Z,102744.63
2023-01-27T00:06:53.315Z,102748.22
2023-01-27T00:09:22.363Z,102750.81
2023-01-27T00:12:13.414Z,102757.75
2023-01-27T00:14:43.920Z,102761.38
2023-01-27T00:17:16.725Z,102761.34
2023-01-27T00:19:47.072Z,102751.63
2023-01-27T00:22:36.032Z,102733.91
2023-01-27T00:25:10.536Z,102752.50
2023-01-27T00:27:38.483Z,102756.03
2023-01-27T00:30:07.812Z,102765.59
2023-01-27T00:32:53.670Z,102763.81
2023-01-27T00:35:23.077Z,102769.00
2023-01-27T00:37:51.015Z,102769.84
2023-01-27T00:41:14.528Z,102773.31
2023-01-27T00:43:49.741Z,102744.25
2023-01-27T00:46:41.266Z,102759.19
2023-01-27T00:49:09.624Z,102755.81
2023-01-27T00:51:38.979Z,102766.31
2023-01-27T00:54:07.293Z,102764.53
2023-01-27T00:56:43.670Z,102750.44
2023-01-27T00:59:12.619Z,102770.78
2023-01-27T01:01:40.630Z,102775.09
2023-01-27T01:04:30.181Z,102784.72
2023-01-27T01:07:16.030Z,102792.50
2023-01-27T01:09:43.993Z,102794.16
2023-01-27T01:12:11.850Z,102803.13
2023-01-27T01:14:39.997Z,102799.59
2023-01-27T01:17:18.348Z,102806.59
2023-01-27T01:19:46.404Z,102781.75
2023-01-27T01:22:15.835Z,102785.34
2023-01-27T01:24:43.658Z,102807.50
2023-01-27T01:27:12.814Z,102817.97
2023-01-27T01:29:46.716Z,102815.38
2023-01-27T01:32:14.740Z,102802.88
2023-01-27T01:34:42.691Z,102824.03
2023-01-27T01:37:10.805Z,102824.94
2023-01-27T01:39:40.286Z,102830.16
2023-01-27T01:42:08.275Z,102826.56
2023-01-27T01:44:37.102Z,102790.31
2023-01-27T01:47:05.335Z,102834.38
2023-01-27T01:49:38.094Z,102845.91
2023-01-27T01:52:09.431Z,102838.06
2023-01-27T01:54:42.914Z,102842.34
2023-01-27T01:57:14.793Z,102846.66
2023-01-27T01:59:45.880Z,102843.94
2023-01-27T02:02:16.854Z,102846.78
2023-01-27T02:04:55.943Z,102855.53
2023-01-27T02:07:30.458Z,102855.44
2023-01-27T02:10:03.319Z,102850.34
2023-01-27T02:12:31.179Z,102872.25
2023-01-27T02:14:59.486Z,102864.31
2023-01-27T02:17:27.644Z,102884.66
2023-01-27T02:20:03.732Z,102880.34
2023-01-27T02:22:40.675Z,102889.94
2023-01-27T02:25:24.755Z,102874.94
2023-01-27T02:27:54.226Z,102886.28
2023-01-27T02:30:23.414Z,102890.94
2023-01-27T02:32:54.203Z,102905.72
2023-01-27T02:35:32.175Z,102897.00
2023-01-27T02:38:02.484Z,102916.38
2023-01-27T02:40:31.483Z,102923.38
2023-01-27T02:43:01.605Z,102904.75
2023-01-27T02:45:30.010Z,102919.00
2023-01-27T02:47:58.061Z,102915.53
2023-01-27T02:50:26.060Z,102910.19
2023-01-27T02:52:53.887Z,102917.22
2023-01-27T02:55:21.770Z,102913.63
2023-01-27T02:57:49.723Z,102906.72
2023-01-27T03:00:19.739Z,102912.75
2023-01-27T03:02:47.890Z,102907.41
2023-01-27T03:05:16.133Z,102919.88
2023-01-27T03:07:44.013Z,102915.53
2023-01-27T03:10:12.587Z,102906.78
2023-01-27T03:12:42.860Z,102890.94
2023-01-27T03:15:29.294Z,102895.44
2023-01-27T03:18:12.770Z,102896.28
2023-01-27T03:20:41.626Z,102904.94
2023-01-27T03:23:09.846Z,102906.69
2023-01-27T03:25:47.883Z,102903.97
2023-01-27T03:28:16.319Z,102900.41
2023-01-27T03:30:44.459Z,102882.72
2023-01-27T03:33:13.838Z,102892.56
2023-01-27T03:35:48.397Z,102863.53
2023-01-27T03:38:35.094Z,102889.06
2023-01-27T03:41:22.551Z,102878.28
2023-01-27T03:44:08.256Z,102911.78
2023-01-27T03:46:36.369Z,102917.00
2023-01-27T03:49:05.640Z,102915.13
2023-01-27T03:51:33.735Z,102903.72
2023-01-27T03:54:01.986Z,102891.41
2023-01-27T03:56:29.941Z,102884.16
2023-01-27T03:58:57.779Z,102866.53
2023-01-27T04:01:26.029Z,102893.13
2023-01-27T04:04:11.775Z,102889.56
2023-01-27T04:06:56.462Z,102888.63
2023-01-27T04:09:26.286Z,102901.03
2023-01-27T04:11:55.016Z,102913.19
2023-01-27T04:14:24.427Z,102906.97
2023-01-27T04:16:54.297Z,102901.75
2023-01-27T04:19:22.759Z,102896.50
2023-01-27T04:21:52.386Z,102901.78
2023-01-27T04:24:26.518Z,102900.97
2023-01-27T04:26:59.492Z,102906.13
2023-01-27T04:29:29.177Z,102899.16
2023-01-27T04:31:57.747Z,102900.00
2023-01-27T04:34:27.090Z,102900.03
2023-01-27T04:36:56.859Z,102881.34
2023-01-27T04:39:25.399Z,102901.84
2023-01-27T04:41:53.795Z,102906.94
2023-01-27T04:44:21.708Z,102907.88
2023-01-27T04:46:50.256Z,102915.69
2023-01-27T04:49:18.933Z,102913.16
2023-01-27T04:51:47.602Z,102909.69
2023-01-27T04:54:17.246Z,102921.81
2023-01-27T04:56:57.831Z,102899.63
2023-01-27T04:59:25.963Z,102910.34
2023-01-27T05:01:54.287Z,102910.34
2023-01-27T05:04:22.228Z,102922.47
2023-01-27T05:06:50.042Z,102895.22
2023-01-27T05:09:21.496Z,102911.09
2023-01-27T05:11:49.487Z,102901.53
2023-01-27T05:14:17.516Z,102913.72
2023-01-27T05:16:45.807Z,102895.19
2023-01-27T05:19:13.784Z,102914.63
2023-01-27T05:21:43.350Z,102916.19
2023-01-27T05:24:11.802Z,102915.44
2023-01-27T05:26:41.511Z,102921.59
2023-01-27T05:29:10.527Z,102926.00
2023-01-27T05:31:38.982Z,102928.63
2023-01-27T05:34:07.048Z,102929.44
2023-01-27T05:36:35.075Z,102924.94
2023-01-27T05:39:04.089Z,102933.66
2023-01-27T05:41:32.234Z,102923.09
2023-01-27T05:44:01.631Z,102925.63
2023-01-27T05:46:32.150Z,102925.63
2023-01-27T05:49:05.469Z,102913.34
2023-01-27T05:51:35.947Z,102895.53
2023-01-27T05:54:04.869Z,102909.75
2023-01-27T05:56:34.217Z,102906.16
2023-01-27T05:59:04.755Z,102922.00
2023-01-27T06:01:34.996Z,102919.41
2023-01-27T06:04:03.328Z,102914.13
2023-01-27T06:06:32.957Z,102920.16
2023-01-27T06:09:04.074Z,102895.56
2023-01-27T06:11:32.102Z,102906.13
2023-01-27T06:14:05.279Z,102899.94
2023-01-27T06:16:49.729Z,102899.03
2023-01-27T06:19:18.071Z,102898.22
2023-01-27T06:21:46.111Z,102900.81
2023-01-27T06:24:14.457Z,102895.34
2023-01-27T06:26:42.429Z,102903.06
2023-01-27T06:29:12.183Z,102944.34
2023-01-27T06:31:44.344Z,102939.88
2023-01-27T06:34:18.132Z,102951.38
2023-01-27T06:36:46.168Z,102947.84
2023-01-27T06:39:16.624Z,102960.94
2023-01-27T06:41:51.061Z,102968.88
2023-01-27T06:44:23.282Z,102951.28
2023-01-27T06:46:51.252Z,102959.09
2023-01-27T06:49:19.301Z,102972.31
2023-01-27T06:51:48.294Z,102982.09
2023-01-27T06:54:16.479Z,102976.81
2023-01-27T06:56:44.501Z,102985.44
2023-01-27T06:59:12.754Z,102988.13
2023-01-27T07:01:42.290Z,102969.53
2023-01-27T07:04:10.301Z,102991.59
2023-01-27T07:06:38.387Z,103003.84
2023-01-27T07:09:06.725Z,102998.63
2023-01-27T07:11:37.371Z,102981.88
2023-01-27T07:14:05.586Z,102997.59
2023-01-27T07:16:33.585Z,102989.66
2023-01-27T07:19:02.968Z,102984.38
2023-01-27T07:21:30.847Z,102986.06
2023-01-27T07:23:58.729Z,102977.19
2023-01-27T07:26:26.716Z,102972.63
2023-01-27T07:28:56.630Z,102965.63
2023-01-27T07:31:25.082Z,102967.38
2023-01-27T07:33:54.124Z,102963.03
2023-01-27T07:36:39.593Z,102963.03
2023-01-27T07:39:07.696Z,102971.63
2023-01-27T07:41:35.740Z,102959.03
2023-01-27T07:44:04.884Z,102961.56
2023-01-27T07:46:33.011Z,102966.56
2023-01-27T07:49:01.045Z,102956.78
2023-01-27T07:51:29.045Z,102962.28
2023-01-27T07:54:02.161Z,102944.66
2023-01-27T07:56:30.431Z,102954.34
2023-01-27T07:58:58.742Z,102954.09
2023-01-27T08:01:26.748Z,102938.22
2023-01-27T08:03:54.814Z,102956.16
2023-01-27T08:06:22.782Z,102952.13
2023-01-27T08:08:50.699Z,102948.75
2023-01-27T08:11:20.180Z,102938.31
2023-01-27T08:13:48.052Z,102963.06
2023-01-27T08:16:19.080Z,102920.59
2023-01-27T08:18:47.080Z,102966.75
2023-01-27T08:21:15.157Z,102966.03
2023-01-27T08:23:43.234Z,102966.09
2023-01-27T08:26:11.307Z,102952.84
2023-01-27T08:28:41.769Z,102961.56
2023-01-27T08:31:11.401Z,102962.09
2023-01-27T08:33:40.062Z,102972.44
2023-01-27T08:36:10.680Z,102968.94
2023-01-27T08:38:39.237Z,102973.31
2023-01-27T08:41:08.517Z,102964.75
2023-01-27T08:43:36.847Z,102955.16
2023-01-27T08:46:07.459Z,102955.22
2023-01-27T08:48:36.698Z,102962.53
2023-01-27T08:51:06.149Z,102950.91
2023-01-27T08:53:37.121Z,102963.16
2023-01-27T08:56:07.862Z,102986.00
2023-01-27T08:58:36.533Z,102973.81
2023-01-27T09:01:17.519Z,102983.47
2023-01-27T09:03:46.968Z,102985.38
2023-01-27T09:06:16.267Z,102970.50
2023-01-27T09:08:45.452Z,102986.47
2023-01-27T09:11:16.883Z,102991.28
2023-01-27T09:13:44.918Z,102997.78
2023-01-27T09:16:17.004Z,102980.72
2023-01-27T09:18:47.742Z,102994.16
2023-01-27T09:21:16.692Z,103012.09
2023-01-27T09:23:44.681Z,103005.00
2023-01-27T09:26:12.695Z,103028.00
2023-01-27T09:28:43.301Z,103015.50
2023-01-27T09:31:11.375Z,103033.50
2023-01-27T09:33:40.745Z,103029.97
2023-01-27T09:36:14.730Z,103035.22
2023-01-27T09:38:46.191Z,103018.72
2023-01-27T09:41:59.251Z,103037.31
2023-01-27T09:44:59.198Z,103044.47
2023-01-27T09:47:45.047Z,103045.75
2023-01-27T09:50:38.563Z,103059.69
2023-01-27T09:53:34.591Z,103057.72
2023-01-27T09:56:07.303Z,103057.25
2023-01-27T09:58:49.821Z,103071.69
2023-01-27T10:01:29.690Z,103078.16
2023-01-27T10:04:29.503Z,103099.97
2023-01-27T10:07:14.891Z,103113.66
2023-01-27T10:10:01.976Z,103111.38
2023-01-27T10:12:44.973Z,103115.09
2023-01-27T10:15:24.744Z,103097.84
2023-01-27T10:18:01.025Z,103104.03
2023-01-27T10:20:35.829Z,103112.44
2023-01-27T10:23:18.441Z,103097.59
2023-01-27T10:25:59.771Z,103109.81
2023-01-27T10:28:32.182Z,103078.88
2023-01-27T10:31:03.097Z,103107.06
2023-01-27T10:33:46.609Z,103098.31
2023-01-27T10:36:23.455Z,103097.56
2023-01-27T10:39:03.892Z,103094.97
2023-01-27T10:41:40.993Z,103091.53
2023-01-27T10:44:25.787Z,103073.19
2023-01-27T10:47:06.333Z,103087.78
2023-01-27T10:49:40.837Z,103060.22
2023-01-27T10:52:12.467Z,103078.81
2023-01-27T10:54:47.762Z,103091.91
2023-01-27T10:57:21.455Z,103081.94
2023-01-27T11:00:22.989Z,103080.09
2023-01-27T11:02:54.101Z,103098.25
2023-01-27T11:05:29.850Z,103096.53
2023-01-27T11:08:01.177Z,103092.72
2023-01-27T11:10:37.629Z,103054.75
2023-01-27T11:13:06.805Z,103080.59
2023-01-27T11:15:36.047Z,103086.91
2023-01-27T11:18:11.475Z,103077.38
2023-01-27T11:20:43.908Z,103077.72
2023-01-27T11:23:20.121Z,103075.84
2023-01-27T11:26:13.456Z,103048.47
2023-01-27T11:28:49.570Z,103072.94
2023-01-27T11:31:38.040Z,103067.72
2023-01-27T11:34:17.120Z,103056.16
2023-01-27T11:36:48.800Z,103064.44
2023-01-27T11:39:25.717Z,103067.69
2023-01-27T11:42:06.926Z,103065.03
2023-01-27T11:44:43.774Z,103061.59
2023-01-27T11:47:32.427Z,103065.00
2023-01-27T11:50:03.635Z,103057.28
2023-01-27T11:52:37.036Z,103057.13
2023-01-27T11:55:09.520Z,103051.59
2023-01-27T11:57:46.393Z,103043.91
2023-01-27T12:00:36.909Z,103046.50
2023-01-27T12:03:20.167Z,103048.31
2023-01-27T12:06:11.327Z,103050.97
2023-01-27T12:08:44.029Z,103023.34
2023-01-27T12:11:28.219Z,103029.53
2023-01-27T12:14:03.142Z,103040.19
2023-01-27T12:16:44.086Z,103031.31
2023-01-27T12:19:24.919Z,103028.50
2023-01-27T12:22:07.081Z,103020.41
2023-01-27T12:24:48.385Z,102988.06
2023-01-27T12:27:41.352Z,103009.34
2023-01-27T12:30:23.660Z,103022.41
2023-01-27T12:32:56.342Z,103035.63
2023-01-27T12:35:29.898Z,103021.50
2023-01-27T12:38:02.921Z,103035.53
2023-01-27T12:40:32.473Z,103033.59
2023-01-27T12:43:14.933Z,103032.81
2023-01-27T12:45:45.115Z,103034.47
2023-01-27T12:48:22.538Z,103036.31
2023-01-27T12:51:05.666Z,103018.06
2023-01-27T12:53:33.728Z,103024.13
2023-01-27T12:56:11.574Z,103018.69
2023-01-27T12:58:41.382Z,103017.06
2023-01-27T13:01:26.917Z,103029.34
2023-01-27T13:03:59.191Z,103006.31
2023-01-27T13:06:43.262Z,103007.28
2023-01-27T13:09:40.263Z,103013.41
2023-01-27T13:12:17.887Z,103019.34
2023-01-27T13:14:50.958Z,103020.19
2023-01-27T13:17:42.627Z,103017.50
2023-01-27T13:20:21.302Z,103012.63
2023-01-27T13:22:54.531Z,103015.03
2023-01-27T13:25:27.518Z,103017.19
2023-01-27T13:28:03.153Z,103025.03
2023-01-27T13:30:37.068Z,103024.22
2023-01-27T13:33:23.666Z,103026.69
2023-01-27T13:36:00.933Z,103026.56
2023-01-27T13:38:37.799Z,103023.19
2023-01-27T13:41:11.948Z,103012.44
2023-01-27T13:43:49.298Z,103030.16
2023-01-27T13:46:23.758Z,103026.50
2023-01-27T13:48:57.003Z,103034.25
2023-01-27T13:51:29.769Z,103037.88
2023-01-27T13:54:00.968Z,103024.59
2023-01-27T13:56:44.672Z,103035.94
2023-01-27T13:59:30.068Z,103023.75
2023-01-27T14:02:23.218Z,103025.66
2023-01-27T14:05:07.385Z,103024.56
2023-01-27T14:07:42.983Z,103023.72
2023-01-27T14:10:20.799Z,103007.00
2023-01-27T14:13:16.031Z,103023.88
2023-01-27T14:15:52.144Z,103028.03
2023-01-27T14:18:23.417Z,103026.13
2023-01-27T14:21:04.019Z,103034.78
2023-01-27T14:23:43.223Z,103017.22
2023-01-27T14:26:21.131Z,103016.13
2023-01-27T14:29:03.515Z,103024.09
2023-01-27T14:31:45.806Z,103016.75
2023-01-27T14:34:33.660Z,103032.47
2023-01-27T14:37:16.232Z,103030.78
2023-01-27T14:39:56.026Z,103034.31
2023-01-27T14:42:32.530Z,103031.50
2023-01-27T14:45:08.430Z,103011.28
2023-01-27T14:47:47.965Z,103036.16
2023-01-27T14:50:27.917Z,103038.88
2023-01-27T14:53:16.611Z,103036.78
2023-01-27T14:55:51.135Z,103016.28
2023-01-27T14:58:38.070Z,103026.09
2023-01-27T15:01:15.623Z,103033.19
2023-01-27T15:04:02.274Z,103021.78
2023-01-27T15:06:36.394Z,103036.75
2023-01-27T15:09:15.278Z,103048.19
2023-01-27T15:12:00.897Z,103043.81
2023-01-27T15:15:03.236Z,103044.69
2023-01-27T15:17:53.079Z,103057.59
2023-01-27T15:20:39.023Z,103069.78
2023-01-27T15:23:27.495Z,103068.16
2023-01-27T15:26:00.351Z,103072.41
2023-01-27T15:28:32.057Z,103076.81
2023-01-27T15:31:26.269Z,103076.69
2023-01-27T15:33:58.500Z,103085.56
2023-01-27T15:36:37.607Z,103080.91
2023-01-27T15:39:26.018Z,103047.25
2023-01-27T15:42:14.161Z,103087.03
2023-01-27T15:44:59.684Z,103083.44
2023-01-27T15:47:29.863Z,103095.63
2023-01-27T15:50:08.430Z,103075.22
2023-01-27T15:52:43.798Z,103082.94
2023-01-27T15:55:26.826Z,103089.41
2023-01-27T15:58:16.964Z,103077.00
2023-01-27T16:00:52.511Z,103069.97
2023-01-27T16:03:27.219Z,103075.31
2023-01-27T16:06:00.462Z,103075.25
2023-01-27T16:08:33.948Z,103079.66
2023-01-27T16:11:25.166Z,103091.03
2023-01-27T16:14:33.946Z,103084.06
2023-01-27T16:17:17.701Z,103086.59
2023-01-27T16:19:50.109Z,103086.50
2023-01-27T16:22:20.403Z,103086.59
2023-01-27T16:24:56.428Z,103064.38
2023-01-27T16:27:38.052Z,103078.59
2023-01-27T16:30:16.944Z,103091.69
2023-01-27T16:32:58.965Z,103097.81
2023-01-27T16:35:27.630Z,103097.78
2023-01-27T16:38:22.144Z,103107.28
2023-01-27T16:40:54.185Z,103090.44
2023-01-27T16:43:26.201Z,103099.38
2023-01-27T16:45:56.990Z,103106.38
2023-01-27T16:48:37.759Z,103110.69
2023-01-27T16:51:16.927Z,103109.84
2023-01-27T16:53:48.323Z,103094.56
2023-01-27T16:56:29.638Z,103092.72
2023-01-27T16:59:01.956Z,103092.63
2023-01-27T17:01:38.408Z,103117.56
2023-01-27T17:04:19.498Z,103121.84
2023-01-27T17:06:48.918Z,103131.34
2023-01-27T17:09:25.297Z,103134.78
2023-01-27T17:11:55.799Z,103146.03
2023-01-27T17:14:32.113Z,103147.88
2023-01-27T17:17:04.095Z,103148.06
2023-01-27T17:19:39.016Z,103150.63
2023-01-27T17:22:10.209Z,103138.84
2023-01-27T17:24:44.117Z,103148.66
2023-01-27T17:27:24.165Z,103148.41
2023-01-27T17:29:56.790Z,103151.19
2023-01-27T17:32:37.924Z,103156.38
2023-01-27T17:35:23.427Z,103146.63
2023-01-27T17:37:51.932Z,103140.16
2023-01-27T17:40:23.923Z,103141.00
2023-01-27T17:42:51.972Z,103169.38
2023-01-27T17:45:25.537Z,103141.16
2023-01-27T17:47:59.427Z,103147.47
2023-01-27T17:50:34.659Z,103130.22
2023-01-27T17:53:05.508Z,103147.47
2023-01-27T17:55:33.481Z,103159.72
2023-01-27T17:58:09.402Z,103122.56
2023-01-27T18:00:40.249Z,103170.19
2023-01-27T18:03:15.511Z,103168.25
2023-01-27T18:05:46.331Z,103159.47
2023-01-27T18:08:14.637Z,103160.25
2023-01-27T18:10:44.243Z,103151.22
2023-01-27T18:13:36.583Z,103150.25
2023-01-27T18:16:15.816Z,103141.28
2023-01-27T18:18:45.658Z,103159.97
2023-01-27T18:21:18.583Z,103171.44
2023-01-27T18:23:49.330Z,103167.75
2023-01-27T18:26:22.726Z,103164.16
2023-01-27T18:28:53.732Z,103179.06
2023-01-27T18:31:24.897Z,103184.19
2023-01-27T18:34:02.895Z,103170.94
2023-01-27T18:36:35.277Z,103163.88
2023-01-27T18:39:05.705Z,103172.63
2023-01-27T18:41:37.587Z,103183.25
2023-01-27T18:44:29.842Z,103179.63
2023-01-27T18:47:12.941Z,103179.53
2023-01-27T18:49:46.082Z,103172.25
2023-01-27T18:52:15.721Z,103182.09
2023-01-27T18:54:44.116Z,103155.31
2023-01-27T18:57:27.641Z,103187.28
2023-01-27T19:00:05.249Z,103185.47
2023-01-27T19:02:33.424Z,103188.06
2023-01-27T19:05:03.457Z,103169.59
2023-01-27T19:07:32.757Z,103162.41
2023-01-27T19:10:03.004Z,103181.00
2023-01-27T19:12:31.071Z,103170.25
2023-01-27T19:15:02.481Z,103164.00
2023-01-27T19:17:30.947Z,103180.06
2023-01-27T19:19:59.035Z,103185.22
2023-01-27T19:22:28.981Z,103183.78
2023-01-27T19:25:03.081Z,103188.22
2023-01-27T19:27:31.286Z,103186.34
2023-01-27T19:30:00.256Z,103197.81
2023-01-27T19:32:28.993Z,103192.53
2023-01-27T19:34:58.656Z,103197.81
2023-01-27T19:37:28.364Z,103209.28
2023-01-27T19:39:56.533Z,103201.41
2023-01-27T19:42:24.587Z,103205.59
2023-01-27T19:44:52.564Z,103194.41
2023-01-27T19:47:20.689Z,103189.84
2023-01-27T19:49:48.781Z,103186.44
2023-01-27T19:52:16.959Z,103186.44
2023-01-27T19:54:46.436Z,103191.72
2023-01-27T19:57:17.493Z,103193.41
2023-01-27T19:59:46.927Z,103207.28
2023-01-27T20:02:15.265Z,103191.63
2023-01-27T20:04:44.363Z,103191.78
2023-01-27T20:07:16.795Z,103186.44
2023-01-27T20:09:47.324Z,103175.50
2023-01-27T20:12:16.238Z,103192.53
2023-01-27T20:14:44.791Z,103163.94
2023-01-27T20:17:13.279Z,103170.16
2023-01-27T20:19:41.511Z,103201.91
2023-01-27T20:22:13.381Z,103204.53
2023-01-27T20:24:41.447Z,103195.81
2023-01-27T20:27:11.627Z,103187.75
2023-01-27T20:29:39.793Z,103191.25
2023-01-27T20:32:09.550Z,103198.22
2023-01-27T20:34:38.597Z,103192.13
2023-01-27T20:37:06.577Z,103194.84
2023-01-27T20:39:34.878Z,103192.19
2023-01-27T20:42:02.802Z,103154.16
2023-01-27T20:44:34.345Z,103183.56
2023-01-27T20:47:02.360Z,103172.78
2023-01-27T20:49:30.281Z,103184.28
2023-01-27T20:51:58.558Z,103193.09
2023-01-27T20:54:26.688Z,103179.16
2023-01-27T20:56:54.731Z,103173.88
2023-01-27T20:59:24.657Z,103180.00
2023-01-27T21:01:54.047Z,103178.94
2023-01-27T21:04:21.921Z,103182.19
2023-01-27T21:06:50.088Z,103168.94
2023-01-27T21:09:18.311Z,103184.28
2023-01-27T21:11:46.368Z,103178.75
2023-01-27T21:14:15.345Z,103159.19
2023-01-27T21:16:43.512Z,103187.59
2023-01-27T21:19:13.310Z,103171.84
2023-01-27T21:21:41.325Z,103169.91
2023-01-27T21:24:11.143Z,103180.53
2023-01-27T21:26:40.165Z,103181.50
2023-01-27T21:29:08.242Z,103191.16
2023-01-27T21:31:37.426Z,103192.66
2023-01-27T21:34:26.924Z,103196.16
2023-01-27T21:36:55.917Z,103189.09
2023-01-27T21:39:24.747Z,103188.16
2023-01-27T21:42:10.530Z,103178.47
2023-01-27T21:44:56.289Z,103189.81
2023-01-27T21:47:24.553Z,103183.59
2023-01-27T21:50:04.323Z,103181.53
2023-01-27T21:52:35.265Z,103186.13
2023-01-27T21:55:08.162Z,103177.19
2023-01-27T21:57:36.472Z,103175.34
2023-01-27T22:00:06.283Z,103171.91
2023-01-27T22:02:35.993Z,103168.28
2023-01-27T22:05:05.872Z,103174.41
2023-01-27T22:07:38.267Z,103158.38
2023-01-27T22:10:07.847Z,103169.00
2023-01-27T22:12:37.775Z,103173.28
2023-01-27T22:15:07.069Z,103174.06
2023-01-27T22:17:36.428Z,103162.72
2023-01-27T22:20:06.869Z,103173.22
2023-01-27T22:22:36.042Z,103173.63
2023-01-27T22:25:04.205Z,103161.88
2023-01-27T22:27:33.356Z,103141.72
2023-01-27T22:30:01.740Z,103177.13
2023-01-27T22:32:30.884Z,103168.31
2023-01-27T22:34:58.783Z,103167.38
2023-01-27T22:37:28.962Z,103155.81
2023-01-27T22:39:57.118Z,103157.25
2023-01-27T22:42:26.703Z,103168.81
2023-01-27T22:44:54.817Z,103154.53
2023-01-27T22:47:24.010Z,103158.59
2023-01-27T22:49:51.871Z,103136.50
2023-01-27T22:52:20.364Z,103158.47
2023-01-27T22:55:03.196Z,103124.47
2023-01-27T22:57:33.439Z,103162.53
2023-01-27T23:00:03.667Z,103154.28
2023-01-27T23:02:32.653Z,103158.97
2023-01-27T23:05:01.695Z,103166.88
2023-01-27T23:07:34.732Z,103155.16
2023-01-27T23:10:04.199Z,103178.16
2023-01-27T23:12:39.047Z,103171.31
2023-01-27T23:15:12.268Z,103173.09
2023-01-27T23:17:40.735Z,103171.53
2023-01-27T23:20:09.878Z,103176.72
2023-01-27T23:22:45.067Z,103167.75
2023-01-27T23:25:14.941Z,103176.53
2023-01-27T23:27:53.765Z,103168.44
2023-01-27T23:30:23.105Z,103176.53
2023-01-27T23:32:51.019Z,103169.75
2023-01-27T23:35:19.095Z,103168.59
2023-01-27T23:37:48.960Z,103167.63
2023-01-27T23:40:19.089Z,103160.63
2023-01-27T23:42:50.909Z,103158.84
2023-01-27T23:45:22.002Z,103169.53
2023-01-27T23:47:50.057Z,103161.59
2023-01-27T23:50:19.210Z,103162.63
2023-01-27T23:52:51.640Z,103127.50
2023-01-27T23:55:21.228Z,103149.28
2023-01-27T23:57:49.025Z,103150.41
